sensor_id;sensor_type;location;lat;lon;timestamp;P1;durP1;ratioP1;P2;durP2;ratioP2
20014;SDS011;61787;42.022;23.078;2023-03-29T00:00:07;2.50;;;2.30;;
20014;SDS011;61787;42.022;23.078;2023-03-29T00:01:14;2.47;;;2.20;;
20014;SDS011;61787;42.022;23.078;2023-03-29T00:02:36;3.43;;;2.53;;
20014;SDS011;61787;42.022;23.078;2023-03-29T00:03:38;2.63;;;2.40;;
20014;SDS011;61787;42.022;23.078;2023-03-29T00:04:40;2.80;;;2.33;;
20014;SDS011;61787;42.022;23.078;2023-03-29T00:05:42;6.57;;;2.50;;
20014;SDS011;61787;42.022;23.078;2023-03-29T00:06:45;4.57;;;2.50;;
20014;SDS011;61787;42.022;23.078;2023-03-29T00:07:48;4.83;;;2.83;;
20014;SDS011;61787;42.022;23.078;2023-03-29T00:09:02;4.97;;;2.57;;
20014;SDS011;61787;42.022;23.078;2023-03-29T00:10:05;3.40;;;2.40;;
20014;SDS011;61787;42.022;23.078;2023-03-29T00:11:10;2.67;;;2.20;;
20014;SDS011;61787;42.022;23.078;2023-03-29T00:12:12;6.57;;;2.70;;
20014;SDS011;61787;42.022;23.078;2023-03-29T00:13:14;5.33;;;2.90;;
20014;SDS011;61787;42.022;23.078;2023-03-29T00:14:16;2.57;;;2.33;;
20014;SDS011;61787;42.022;23.078;2023-03-29T00:15:17;3.97;;;2.80;;
20014;SDS011;61787;42.022;23.078;2023-03-29T00:16:19;3.63;;;2.60;;
20014;SDS011;61787;42.022;23.078;2023-03-29T00:17:21;2.97;;;2.33;;
20014;SDS011;61787;42.022;23.078;2023-03-29T00:18:23;3.17;;;2.53;;
20014;SDS011;61787;42.022;23.078;2023-03-29T00:19:24;6.73;;;3.00;;
20014;SDS011;61787;42.022;23.078;2023-03-29T00:20:26;4.60;;;2.60;;
20014;SDS011;61787;42.022;23.078;2023-03-29T00:21:29;4.10;;;2.70;;
20014;SDS011;61787;42.022;23.078;2023-03-29T00:22:31;2.97;;;2.13;;
20014;SDS011;61787;42.022;23.078;2023-03-29T00:23:33;2.53;;;2.20;;
20014;SDS011;61787;42.022;23.078;2023-03-29T00:24:34;2.40;;;2.20;;
20014;SDS011;61787;42.022;23.078;2023-03-29T00:25:36;3.07;;;2.30;;
20014;SDS011;61787;42.022;23.078;2023-03-29T00:26:38;6.07;;;2.43;;
20014;SDS011;61787;42.022;23.078;2023-03-29T00:27:39;2.97;;;2.10;;
20014;SDS011;61787;42.022;23.078;2023-03-29T00:28:41;3.80;;;2.57;;
20014;SDS011;61787;42.022;23.078;2023-03-29T00:29:43;3.53;;;2.53;;
20014;SDS011;61787;42.022;23.078;2023-03-29T00:30:45;2.53;;;2.33;;
20014;SDS011;61787;42.022;23.078;2023-03-29T00:31:46;4.37;;;2.73;;
20014;SDS011;61787;42.022;23.078;2023-03-29T00:32:54;3.83;;;2.20;;
20014;SDS011;61787;42.022;23.078;2023-03-29T00:33:56;3.37;;;2.40;;
20014;SDS011;61787;42.022;23.078;2023-03-29T00:34:58;4.17;;;2.50;;
20014;SDS011;61787;42.022;23.078;2023-03-29T00:36:05;3.70;;;2.77;;
20014;SDS011;61787;42.022;23.078;2023-03-29T00:37:08;7.43;;;2.40;;
20014;SDS011;61787;42.022;23.078;2023-03-29T00:38:10;2.73;;;2.37;;
20014;SDS011;61787;42.022;23.078;2023-03-29T00:39:11;3.87;;;2.60;;
20014;SDS011;61787;42.022;23.078;2023-03-29T00:40:13;4.47;;;2.80;;
20014;SDS011;61787;42.022;23.078;2023-03-29T00:41:15;6.20;;;2.73;;
20014;SDS011;61787;42.022;23.078;2023-03-29T00:42:17;4.13;;;2.70;;
20014;SDS011;61787;42.022;23.078;2023-03-29T00:43:19;2.50;;;2.30;;
20014;SDS011;61787;42.022;23.078;2023-03-29T00:46:17;2.87;;;2.63;;
20014;SDS011;61787;42.022;23.078;2023-03-29T00:47:40;3.20;;;2.67;;
20014;SDS011;61787;42.022;23.078;2023-03-29T00:48:54;4.87;;;2.40;;
20014;SDS011;61787;42.022;23.078;2023-03-29T00:50:06;4.80;;;2.37;;
20014;SDS011;61787;42.022;23.078;2023-03-29T00:51:16;4.20;;;2.70;;
20014;SDS011;61787;42.022;23.078;2023-03-29T00:52:21;4.23;;;2.90;;
20014;SDS011;61787;42.022;23.078;2023-03-29T00:53:26;4.23;;;2.60;;
20014;SDS011;61787;42.022;23.078;2023-03-29T00:54:36;4.90;;;2.93;;
20014;SDS011;61787;42.022;23.078;2023-03-29T00:55:40;4.17;;;2.70;;
20014;SDS011;61787;42.022;23.078;2023-03-29T00:56:47;3.27;;;2.60;;
20014;SDS011;61787;42.022;23.078;2023-03-29T00:57:51;4.27;;;2.77;;
20014;SDS011;61787;42.022;23.078;2023-03-29T00:59:00;4.70;;;2.73;;
20014;SDS011;61787;42.022;23.078;2023-03-29T01:00:05;3.03;;;2.70;;
20014;SDS011;61787;42.022;23.078;2023-03-29T01:01:11;5.03;;;2.70;;
20014;SDS011;61787;42.022;23.078;2023-03-29T01:02:19;3.43;;;2.93;;
20014;SDS011;61787;42.022;23.078;2023-03-29T01:03:22;8.50;;;3.07;;
20014;SDS011;61787;42.022;23.078;2023-03-29T01:04:34;3.70;;;2.80;;
20014;SDS011;61787;42.022;23.078;2023-03-29T01:05:44;5.73;;;3.13;;
20014;SDS011;61787;42.022;23.078;2023-03-29T01:06:52;6.23;;;3.20;;
20014;SDS011;61787;42.022;23.078;2023-03-29T01:08:04;6.60;;;2.83;;
20014;SDS011;61787;42.022;23.078;2023-03-29T01:09:11;7.63;;;3.30;;
20014;SDS011;61787;42.022;23.078;2023-03-29T01:10:25;5.90;;;3.30;;
20014;SDS011;61787;42.022;23.078;2023-03-29T01:11:37;8.17;;;3.17;;
20014;SDS011;61787;42.022;23.078;2023-03-29T01:12:43;7.03;;;2.90;;
20014;SDS011;61787;42.022;23.078;2023-03-29T01:13:57;5.20;;;2.83;;
20014;SDS011;61787;42.022;23.078;2023-03-29T01:15:08;8.03;;;3.77;;
20014;SDS011;61787;42.022;23.078;2023-03-29T01:16:11;9.93;;;3.67;;
20014;SDS011;61787;42.022;23.078;2023-03-29T01:17:14;8.17;;;4.03;;
20014;SDS011;61787;42.022;23.078;2023-03-29T01:18:16;5.83;;;3.13;;
20014;SDS011;61787;42.022;23.078;2023-03-29T01:19:20;8.80;;;3.33;;
20014;SDS011;61787;42.022;23.078;2023-03-29T01:26:08;7.17;;;3.47;;
20014;SDS011;61787;42.022;23.078;2023-03-29T01:28:43;7.87;;;3.47;;
20014;SDS011;61787;42.022;23.078;2023-03-29T01:29:56;6.47;;;2.93;;
20014;SDS011;61787;42.022;23.078;2023-03-29T01:31:06;6.43;;;3.27;;
20014;SDS011;61787;42.022;23.078;2023-03-29T01:32:16;5.20;;;3.00;;
20014;SDS011;61787;42.022;23.078;2023-03-29T01:33:23;7.03;;;3.00;;
20014;SDS011;61787;42.022;23.078;2023-03-29T01:34:40;7.30;;;3.73;;
20014;SDS011;61787;42.022;23.078;2023-03-29T01:35:44;4.60;;;2.97;;
20014;SDS011;61787;42.022;23.078;2023-03-29T01:37:10;8.07;;;3.50;;
20014;SDS011;61787;42.022;23.078;2023-03-29T01:38:22;7.03;;;3.00;;
20014;SDS011;61787;42.022;23.078;2023-03-29T01:39:30;8.83;;;3.23;;
20014;SDS011;61787;42.022;23.078;2023-03-29T01:40:34;8.90;;;3.20;;
20014;SDS011;61787;42.022;23.078;2023-03-29T01:42:45;5.90;;;2.70;;
20014;SDS011;61787;42.022;23.078;2023-03-29T01:44:06;7.43;;;3.10;;
20014;SDS011;61787;42.022;23.078;2023-03-29T01:45:19;11.23;;;3.57;;
20014;SDS011;61787;42.022;23.078;2023-03-29T01:46:31;6.77;;;2.93;;
20014;SDS011;61787;42.022;23.078;2023-03-29T01:50:15;7.37;;;3.10;;
20014;SDS011;61787;42.022;23.078;2023-03-29T01:51:23;7.23;;;3.17;;
20014;SDS011;61787;42.022;23.078;2023-03-29T01:52:35;7.80;;;3.40;;
20014;SDS011;61787;42.022;23.078;2023-03-29T01:53:53;10.63;;;3.13;;
20014;SDS011;61787;42.022;23.078;2023-03-29T01:55:08;5.77;;;3.20;;
20014;SDS011;61787;42.022;23.078;2023-03-29T01:56:18;6.47;;;2.83;;
20014;SDS011;61787;42.022;23.078;2023-03-29T01:57:23;4.97;;;3.33;;
20014;SDS011;61787;42.022;23.078;2023-03-29T01:58:27;7.70;;;3.17;;
20014;SDS011;61787;42.022;23.078;2023-03-29T01:59:34;6.47;;;2.90;;
20014;SDS011;61787;42.022;23.078;2023-03-29T02:00:40;5.27;;;3.40;;
20014;SDS011;61787;42.022;23.078;2023-03-29T02:01:44;7.13;;;3.07;;
20014;SDS011;61787;42.022;23.078;2023-03-29T02:02:51;5.33;;;3.10;;
20014;SDS011;61787;42.022;23.078;2023-03-29T02:03:58;8.70;;;3.43;;
20014;SDS011;61787;42.022;23.078;2023-03-29T02:05:04;5.50;;;3.23;;
20014;SDS011;61787;42.022;23.078;2023-03-29T02:06:10;6.57;;;3.17;;
20014;SDS011;61787;42.022;23.078;2023-03-29T02:07:17;3.73;;;3.10;;
20014;SDS011;61787;42.022;23.078;2023-03-29T02:08:22;6.93;;;3.20;;
20014;SDS011;61787;42.022;23.078;2023-03-29T02:09:26;4.27;;;3.37;;
20014;SDS011;61787;42.022;23.078;2023-03-29T02:10:29;4.10;;;3.03;;
20014;SDS011;61787;42.022;23.078;2023-03-29T02:11:33;4.57;;;3.37;;
20014;SDS011;61787;42.022;23.078;2023-03-29T02:12:36;5.47;;;3.10;;
20014;SDS011;61787;42.022;23.078;2023-03-29T02:13:38;3.33;;;2.80;;
20014;SDS011;61787;42.022;23.078;2023-03-29T02:14:40;9.50;;;2.93;;
20014;SDS011;61787;42.022;23.078;2023-03-29T02:15:43;5.13;;;3.23;;
20014;SDS011;61787;42.022;23.078;2023-03-29T02:16:45;3.73;;;2.97;;
20014;SDS011;61787;42.022;23.078;2023-03-29T02:17:47;4.77;;;3.20;;
20014;SDS011;61787;42.022;23.078;2023-03-29T02:18:51;4.40;;;3.60;;
20014;SDS011;61787;42.022;23.078;2023-03-29T02:20:13;6.37;;;3.13;;
20014;SDS011;61787;42.022;23.078;2023-03-29T02:21:23;6.07;;;3.57;;
20014;SDS011;61787;42.022;23.078;2023-03-29T02:22:35;6.83;;;3.23;;
20014;SDS011;61787;42.022;23.078;2023-03-29T02:23:42;4.37;;;3.33;;
20014;SDS011;61787;42.022;23.078;2023-03-29T02:24:46;5.70;;;3.17;;
20014;SDS011;61787;42.022;23.078;2023-03-29T02:25:51;7.63;;;3.67;;
20014;SDS011;61787;42.022;23.078;2023-03-29T02:26:54;7.00;;;3.10;;
20014;SDS011;61787;42.022;23.078;2023-03-29T02:27:56;6.10;;;3.43;;
20014;SDS011;61787;42.022;23.078;2023-03-29T02:28:59;5.13;;;3.50;;
20014;SDS011;61787;42.022;23.078;2023-03-29T02:30:01;5.33;;;3.10;;
20014;SDS011;61787;42.022;23.078;2023-03-29T02:31:17;7.30;;;3.40;;
20014;SDS011;61787;42.022;23.078;2023-03-29T02:32:28;4.40;;;3.13;;
20014;SDS011;61787;42.022;23.078;2023-03-29T02:33:48;5.03;;;3.20;;
20014;SDS011;61787;42.022;23.078;2023-03-29T02:34:58;6.43;;;2.97;;
20014;SDS011;61787;42.022;23.078;2023-03-29T02:37:21;4.73;;;3.40;;
20014;SDS011;61787;42.022;23.078;2023-03-29T02:38:26;6.33;;;3.53;;
20014;SDS011;61787;42.022;23.078;2023-03-29T02:39:30;4.27;;;3.10;;
20014;SDS011;61787;42.022;23.078;2023-03-29T02:40:33;4.93;;;3.17;;
20014;SDS011;61787;42.022;23.078;2023-03-29T02:41:37;3.47;;;2.60;;
20014;SDS011;61787;42.022;23.078;2023-03-29T02:42:43;6.73;;;3.37;;
20014;SDS011;61787;42.022;23.078;2023-03-29T02:43:46;3.37;;;2.93;;
20014;SDS011;61787;42.022;23.078;2023-03-29T02:44:49;7.77;;;3.50;;
20014;SDS011;61787;42.022;23.078;2023-03-29T02:45:54;3.67;;;3.37;;
20014;SDS011;61787;42.022;23.078;2023-03-29T02:46:57;4.03;;;3.60;;
20014;SDS011;61787;42.022;23.078;2023-03-29T02:48:09;5.97;;;3.97;;
20014;SDS011;61787;42.022;23.078;2023-03-29T02:49:14;5.53;;;3.63;;
20014;SDS011;61787;42.022;23.078;2023-03-29T02:50:16;5.73;;;4.07;;
20014;SDS011;61787;42.022;23.078;2023-03-29T02:51:19;4.87;;;3.53;;
20014;SDS011;61787;42.022;23.078;2023-03-29T02:52:25;5.33;;;4.00;;
20014;SDS011;61787;42.022;23.078;2023-03-29T02:53:38;6.27;;;3.57;;
20014;SDS011;61787;42.022;23.078;2023-03-29T02:54:44;6.10;;;3.70;;
20014;SDS011;61787;42.022;23.078;2023-03-29T02:55:49;6.63;;;3.63;;
20014;SDS011;61787;42.022;23.078;2023-03-29T02:56:55;4.70;;;3.80;;
20014;SDS011;61787;42.022;23.078;2023-03-29T02:57:59;5.47;;;3.57;;
20014;SDS011;61787;42.022;23.078;2023-03-29T02:59:08;4.70;;;3.53;;
20014;SDS011;61787;42.022;23.078;2023-03-29T03:00:12;3.77;;;2.90;;
20014;SDS011;61787;42.022;23.078;2023-03-29T03:01:15;7.43;;;3.33;;
20014;SDS011;61787;42.022;23.078;2023-03-29T03:02:18;6.80;;;3.57;;
20014;SDS011;61787;42.022;23.078;2023-03-29T03:03:20;5.67;;;3.77;;
20014;SDS011;61787;42.022;23.078;2023-03-29T03:04:22;6.60;;;3.73;;
20014;SDS011;61787;42.022;23.078;2023-03-29T03:05:23;5.60;;;3.27;;
20014;SDS011;61787;42.022;23.078;2023-03-29T03:06:25;7.33;;;3.07;;
20014;SDS011;61787;42.022;23.078;2023-03-29T03:07:29;4.73;;;3.10;;
20014;SDS011;61787;42.022;23.078;2023-03-29T03:08:30;4.37;;;3.40;;
20014;SDS011;61787;42.022;23.078;2023-03-29T03:09:32;5.67;;;2.97;;
20014;SDS011;61787;42.022;23.078;2023-03-29T03:10:34;6.50;;;3.00;;
20014;SDS011;61787;42.022;23.078;2023-03-29T03:11:36;6.47;;;3.50;;
20014;SDS011;61787;42.022;23.078;2023-03-29T03:12:38;6.73;;;3.50;;
20014;SDS011;61787;42.022;23.078;2023-03-29T03:13:40;6.67;;;3.40;;
20014;SDS011;61787;42.022;23.078;2023-03-29T03:14:41;12.27;;;4.20;;
20014;SDS011;61787;42.022;23.078;2023-03-29T03:15:43;11.10;;;3.60;;
20014;SDS011;61787;42.022;23.078;2023-03-29T03:16:49;8.03;;;3.40;;
20014;SDS011;61787;42.022;23.078;2023-03-29T03:17:50;5.37;;;3.17;;
20014;SDS011;61787;42.022;23.078;2023-03-29T03:18:52;3.60;;;2.80;;
20014;SDS011;61787;42.022;23.078;2023-03-29T03:19:55;4.37;;;2.90;;
20014;SDS011;61787;42.022;23.078;2023-03-29T03:20:57;3.27;;;2.53;;
20014;SDS011;61787;42.022;23.078;2023-03-29T03:22:02;4.27;;;2.90;;
20014;SDS011;61787;42.022;23.078;2023-03-29T03:23:06;6.00;;;2.70;;
20014;SDS011;61787;42.022;23.078;2023-03-29T03:24:09;5.27;;;3.03;;
20014;SDS011;61787;42.022;23.078;2023-03-29T03:25:11;9.13;;;2.80;;
20014;SDS011;61787;42.022;23.078;2023-03-29T03:26:13;6.77;;;2.97;;
20014;SDS011;61787;42.022;23.078;2023-03-29T03:27:16;7.50;;;2.87;;
20014;SDS011;61787;42.022;23.078;2023-03-29T03:28:18;8.83;;;3.20;;
20014;SDS011;61787;42.022;23.078;2023-03-29T03:29:20;3.37;;;2.80;;
20014;SDS011;61787;42.022;23.078;2023-03-29T03:30:22;5.30;;;3.23;;
20014;SDS011;61787;42.022;23.078;2023-03-29T03:31:25;3.90;;;2.70;;
20014;SDS011;61787;42.022;23.078;2023-03-29T03:32:28;4.07;;;2.80;;
20014;SDS011;61787;42.022;23.078;2023-03-29T03:33:30;4.53;;;2.93;;
20014;SDS011;61787;42.022;23.078;2023-03-29T03:34:32;5.63;;;2.80;;
20014;SDS011;61787;42.022;23.078;2023-03-29T03:35:34;6.10;;;3.13;;
20014;SDS011;61787;42.022;23.078;2023-03-29T03:36:36;7.10;;;3.40;;
20014;SDS011;61787;42.022;23.078;2023-03-29T03:37:38;4.03;;;2.90;;
20014;SDS011;61787;42.022;23.078;2023-03-29T03:38:40;4.83;;;2.70;;
20014;SDS011;61787;42.022;23.078;2023-03-29T03:39:42;4.43;;;2.40;;
20014;SDS011;61787;42.022;23.078;2023-03-29T03:40:44;3.87;;;2.63;;
20014;SDS011;61787;42.022;23.078;2023-03-29T03:41:52;4.17;;;2.47;;
20014;SDS011;61787;42.022;23.078;2023-03-29T03:42:54;6.97;;;2.70;;
20014;SDS011;61787;42.022;23.078;2023-03-29T03:43:55;4.83;;;2.87;;
20014;SDS011;61787;42.022;23.078;2023-03-29T03:44:57;4.17;;;2.67;;
20014;SDS011;61787;42.022;23.078;2023-03-29T03:45:59;9.50;;;3.27;;
20014;SDS011;61787;42.022;23.078;2023-03-29T03:47:00;5.43;;;2.90;;
20014;SDS011;61787;42.022;23.078;2023-03-29T03:48:02;7.83;;;3.27;;
20014;SDS011;61787;42.022;23.078;2023-03-29T03:49:04;7.37;;;3.00;;
20014;SDS011;61787;42.022;23.078;2023-03-29T03:50:06;5.73;;;2.80;;
20014;SDS011;61787;42.022;23.078;2023-03-29T03:51:09;7.03;;;3.00;;
20014;SDS011;61787;42.022;23.078;2023-03-29T03:52:11;6.73;;;3.20;;
20014;SDS011;61787;42.022;23.078;2023-03-29T03:53:12;9.03;;;3.30;;
20014;SDS011;61787;42.022;23.078;2023-03-29T03:54:14;4.10;;;2.87;;
20014;SDS011;61787;42.022;23.078;2023-03-29T03:55:15;7.77;;;3.30;;
20014;SDS011;61787;42.022;23.078;2023-03-29T03:56:17;9.63;;;3.40;;
20014;SDS011;61787;42.022;23.078;2023-03-29T03:57:20;7.27;;;3.73;;
20014;SDS011;61787;42.022;23.078;2023-03-29T03:58:23;8.23;;;3.20;;
20014;SDS011;61787;42.022;23.078;2023-03-29T03:59:24;7.50;;;3.30;;
20014;SDS011;61787;42.022;23.078;2023-03-29T04:00:26;10.33;;;3.53;;
20014;SDS011;61787;42.022;23.078;2023-03-29T04:01:29;8.60;;;3.27;;
20014;SDS011;61787;42.022;23.078;2023-03-29T04:02:31;7.30;;;3.23;;
20014;SDS011;61787;42.022;23.078;2023-03-29T04:03:33;5.70;;;3.13;;
20014;SDS011;61787;42.022;23.078;2023-03-29T04:04:34;8.10;;;3.30;;
20014;SDS011;61787;42.022;23.078;2023-03-29T04:05:40;7.23;;;2.93;;
20014;SDS011;61787;42.022;23.078;2023-03-29T04:06:42;5.93;;;3.10;;
20014;SDS011;61787;42.022;23.078;2023-03-29T04:07:44;5.60;;;2.70;;
20014;SDS011;61787;42.022;23.078;2023-03-29T04:08:46;4.93;;;3.03;;
20014;SDS011;61787;42.022;23.078;2023-03-29T04:09:48;8.13;;;3.27;;
20014;SDS011;61787;42.022;23.078;2023-03-29T04:10:51;7.03;;;3.00;;
20014;SDS011;61787;42.022;23.078;2023-03-29T04:11:53;6.10;;;3.30;;
20014;SDS011;61787;42.022;23.078;2023-03-29T04:12:57;6.97;;;3.07;;
20014;SDS011;61787;42.022;23.078;2023-03-29T04:13:59;10.30;;;3.40;;
20014;SDS011;61787;42.022;23.078;2023-03-29T04:15:02;7.53;;;3.63;;
20014;SDS011;61787;42.022;23.078;2023-03-29T04:16:04;4.93;;;2.60;;
20014;SDS011;61787;42.022;23.078;2023-03-29T04:17:07;7.63;;;3.20;;
20014;SDS011;61787;42.022;23.078;2023-03-29T04:18:09;5.33;;;2.93;;
20014;SDS011;61787;42.022;23.078;2023-03-29T04:19:11;5.20;;;2.90;;
20014;SDS011;61787;42.022;23.078;2023-03-29T04:20:13;6.00;;;3.00;;
20014;SDS011;61787;42.022;23.078;2023-03-29T04:21:15;3.87;;;2.90;;
20014;SDS011;61787;42.022;23.078;2023-03-29T04:22:20;3.90;;;2.90;;
20014;SDS011;61787;42.022;23.078;2023-03-29T04:23:22;4.90;;;2.70;;
20014;SDS011;61787;42.022;23.078;2023-03-29T04:24:24;6.97;;;2.90;;
20014;SDS011;61787;42.022;23.078;2023-03-29T04:25:25;4.77;;;2.80;;
20014;SDS011;61787;42.022;23.078;2023-03-29T04:26:27;4.40;;;2.53;;
20014;SDS011;61787;42.022;23.078;2023-03-29T04:27:28;4.60;;;2.30;;
20014;SDS011;61787;42.022;23.078;2023-03-29T04:28:30;4.20;;;2.43;;
20014;SDS011;61787;42.022;23.078;2023-03-29T04:29:32;3.67;;;2.30;;
20014;SDS011;61787;42.022;23.078;2023-03-29T04:30:34;4.53;;;2.60;;
20014;SDS011;61787;42.022;23.078;2023-03-29T04:31:35;2.70;;;2.10;;
20014;SDS011;61787;42.022;23.078;2023-03-29T04:32:37;3.07;;;2.70;;
20014;SDS011;61787;42.022;23.078;2023-03-29T04:33:39;2.77;;;2.53;;
20014;SDS011;61787;42.022;23.078;2023-03-29T04:34:41;3.23;;;2.50;;
20014;SDS011;61787;42.022;23.078;2023-03-29T04:35:42;3.73;;;2.47;;
20014;SDS011;61787;42.022;23.078;2023-03-29T04:36:44;3.20;;;2.53;;
20014;SDS011;61787;42.022;23.078;2023-03-29T04:37:46;3.07;;;2.43;;
20014;SDS011;61787;42.022;23.078;2023-03-29T04:38:48;4.43;;;2.60;;
20014;SDS011;61787;42.022;23.078;2023-03-29T04:39:52;3.97;;;2.17;;
20014;SDS011;61787;42.022;23.078;2023-03-29T04:40:54;4.37;;;2.27;;
20014;SDS011;61787;42.022;23.078;2023-03-29T04:41:56;4.10;;;2.37;;
20014;SDS011;61787;42.022;23.078;2023-03-29T04:42:58;2.37;;;2.10;;
20014;SDS011;61787;42.022;23.078;2023-03-29T04:44:01;3.73;;;2.37;;
20014;SDS011;61787;42.022;23.078;2023-03-29T04:45:03;2.90;;;2.40;;
20014;SDS011;61787;42.022;23.078;2023-03-29T04:46:07;2.73;;;2.50;;
20014;SDS011;61787;42.022;23.078;2023-03-29T04:47:09;2.33;;;2.13;;
20014;SDS011;61787;42.022;23.078;2023-03-29T04:48:14;5.80;;;2.37;;
20014;SDS011;61787;42.022;23.078;2023-03-29T04:49:16;4.23;;;2.40;;
20014;SDS011;61787;42.022;23.078;2023-03-29T04:50:18;4.37;;;2.27;;
20014;SDS011;61787;42.022;23.078;2023-03-29T04:51:20;2.33;;;2.07;;
20014;SDS011;61787;42.022;23.078;2023-03-29T04:52:22;3.63;;;2.40;;
20014;SDS011;61787;42.022;23.078;2023-03-29T04:53:24;4.03;;;2.03;;
20014;SDS011;61787;42.022;23.078;2023-03-29T04:54:26;4.50;;;2.20;;
20014;SDS011;61787;42.022;23.078;2023-03-29T04:55:28;3.20;;;2.50;;
20014;SDS011;61787;42.022;23.078;2023-03-29T04:56:29;4.10;;;2.30;;
20014;SDS011;61787;42.022;23.078;2023-03-29T04:57:31;6.07;;;2.30;;
20014;SDS011;61787;42.022;23.078;2023-03-29T04:58:33;5.60;;;2.03;;
20014;SDS011;61787;42.022;23.078;2023-03-29T04:59:34;3.33;;;2.60;;
20014;SDS011;61787;42.022;23.078;2023-03-29T05:00:36;3.70;;;2.50;;
20014;SDS011;61787;42.022;23.078;2023-03-29T05:01:38;5.03;;;2.87;;
20014;SDS011;61787;42.022;23.078;2023-03-29T05:02:40;4.40;;;3.00;;
20014;SDS011;61787;42.022;23.078;2023-03-29T05:03:43;5.43;;;2.67;;
20014;SDS011;61787;42.022;23.078;2023-03-29T05:04:45;3.47;;;2.53;;
20014;SDS011;61787;42.022;23.078;2023-03-29T05:05:46;6.37;;;2.90;;
20014;SDS011;61787;42.022;23.078;2023-03-29T05:06:48;4.40;;;2.17;;
20014;SDS011;61787;42.022;23.078;2023-03-29T05:07:50;4.70;;;2.77;;
20014;SDS011;61787;42.022;23.078;2023-03-29T05:08:52;2.63;;;2.43;;
20014;SDS011;61787;42.022;23.078;2023-03-29T05:09:54;2.30;;;2.10;;
20014;SDS011;61787;42.022;23.078;2023-03-29T05:10:55;7.60;;;2.60;;
20014;SDS011;61787;42.022;23.078;2023-03-29T05:11:57;4.70;;;3.00;;
20014;SDS011;61787;42.022;23.078;2023-03-29T05:12:58;3.53;;;2.30;;
20014;SDS011;61787;42.022;23.078;2023-03-29T05:14:00;4.13;;;2.23;;
20014;SDS011;61787;42.022;23.078;2023-03-29T05:15:03;5.63;;;2.53;;
20014;SDS011;61787;42.022;23.078;2023-03-29T05:16:05;5.17;;;2.60;;
20014;SDS011;61787;42.022;23.078;2023-03-29T05:17:08;6.57;;;3.10;;
20014;SDS011;61787;42.022;23.078;2023-03-29T05:18:09;4.70;;;2.80;;
20014;SDS011;61787;42.022;23.078;2023-03-29T05:19:11;5.83;;;3.33;;
20014;SDS011;61787;42.022;23.078;2023-03-29T05:20:13;5.60;;;2.93;;
20014;SDS011;61787;42.022;23.078;2023-03-29T05:21:15;4.97;;;2.90;;
20014;SDS011;61787;42.022;23.078;2023-03-29T05:22:17;5.33;;;3.33;;
20014;SDS011;61787;42.022;23.078;2023-03-29T05:23:19;5.30;;;3.57;;
20014;SDS011;61787;42.022;23.078;2023-03-29T05:24:21;5.37;;;3.03;;
20014;SDS011;61787;42.022;23.078;2023-03-29T05:25:23;5.30;;;3.33;;
20014;SDS011;61787;42.022;23.078;2023-03-29T05:26:26;9.53;;;3.73;;
20014;SDS011;61787;42.022;23.078;2023-03-29T05:27:28;5.70;;;3.17;;
20014;SDS011;61787;42.022;23.078;2023-03-29T05:28:30;4.20;;;3.20;;
20014;SDS011;61787;42.022;23.078;2023-03-29T05:29:33;6.17;;;3.63;;
20014;SDS011;61787;42.022;23.078;2023-03-29T05:30:35;7.87;;;3.47;;
20014;SDS011;61787;42.022;23.078;2023-03-29T05:31:37;5.87;;;3.30;;
20014;SDS011;61787;42.022;23.078;2023-03-29T05:32:39;5.53;;;2.73;;
20014;SDS011;61787;42.022;23.078;2023-03-29T05:33:40;4.53;;;3.13;;
20014;SDS011;61787;42.022;23.078;2023-03-29T05:34:42;5.87;;;3.43;;
20014;SDS011;61787;42.022;23.078;2023-03-29T05:35:44;4.47;;;3.60;;
20014;SDS011;61787;42.022;23.078;2023-03-29T05:36:46;6.40;;;3.33;;
20014;SDS011;61787;42.022;23.078;2023-03-29T05:37:49;8.10;;;4.33;;
20014;SDS011;61787;42.022;23.078;2023-03-29T05:38:51;9.70;;;3.80;;
20014;SDS011;61787;42.022;23.078;2023-03-29T05:39:53;9.17;;;3.57;;
20014;SDS011;61787;42.022;23.078;2023-03-29T05:41:06;7.77;;;3.93;;
20014;SDS011;61787;42.022;23.078;2023-03-29T05:42:08;6.30;;;2.53;;
20014;SDS011;61787;42.022;23.078;2023-03-29T05:43:12;3.27;;;2.43;;
20014;SDS011;61787;42.022;23.078;2023-03-29T05:44:14;5.73;;;3.40;;
20014;SDS011;61787;42.022;23.078;2023-03-29T05:45:16;7.13;;;3.23;;
20014;SDS011;61787;42.022;23.078;2023-03-29T05:46:17;7.43;;;2.63;;
20014;SDS011;61787;42.022;23.078;2023-03-29T05:47:19;4.50;;;2.13;;
20014;SDS011;61787;42.022;23.078;2023-03-29T05:48:22;5.03;;;2.43;;
20014;SDS011;61787;42.022;23.078;2023-03-29T05:49:24;4.87;;;2.80;;
20014;SDS011;61787;42.022;23.078;2023-03-29T05:50:27;7.07;;;2.90;;
20014;SDS011;61787;42.022;23.078;2023-03-29T05:51:28;5.90;;;2.70;;
20014;SDS011;61787;42.022;23.078;2023-03-29T05:52:30;7.73;;;2.73;;
20014;SDS011;61787;42.022;23.078;2023-03-29T05:53:32;6.87;;;2.80;;
20014;SDS011;61787;42.022;23.078;2023-03-29T05:54:34;5.80;;;2.63;;
20014;SDS011;61787;42.022;23.078;2023-03-29T05:55:35;3.87;;;2.33;;
20014;SDS011;61787;42.022;23.078;2023-03-29T05:56:37;6.03;;;2.73;;
20014;SDS011;61787;42.022;23.078;2023-03-29T05:57:39;5.70;;;2.37;;
20014;SDS011;61787;42.022;23.078;2023-03-29T05:58:41;3.77;;;2.30;;
20014;SDS011;61787;42.022;23.078;2023-03-29T05:59:42;6.47;;;2.60;;
20014;SDS011;61787;42.022;23.078;2023-03-29T06:00:44;8.07;;;2.57;;
20014;SDS011;61787;42.022;23.078;2023-03-29T06:01:46;5.10;;;2.20;;
20014;SDS011;61787;42.022;23.078;2023-03-29T06:02:48;4.60;;;2.53;;
20014;SDS011;61787;42.022;23.078;2023-03-29T06:03:52;8.53;;;2.50;;
20014;SDS011;61787;42.022;23.078;2023-03-29T06:04:54;7.53;;;2.83;;
20014;SDS011;61787;42.022;23.078;2023-03-29T06:06:00;4.67;;;2.80;;
20014;SDS011;61787;42.022;23.078;2023-03-29T06:07:03;5.50;;;2.60;;
20014;SDS011;61787;42.022;23.078;2023-03-29T06:08:05;6.30;;;2.53;;
20014;SDS011;61787;42.022;23.078;2023-03-29T06:09:07;7.47;;;2.60;;
20014;SDS011;61787;42.022;23.078;2023-03-29T06:10:09;6.30;;;2.23;;
20014;SDS011;61787;42.022;23.078;2023-03-29T06:11:12;5.70;;;2.33;;
20014;SDS011;61787;42.022;23.078;2023-03-29T06:12:13;4.90;;;2.37;;
20014;SDS011;61787;42.022;23.078;2023-03-29T06:13:15;4.27;;;2.30;;
20014;SDS011;61787;42.022;23.078;2023-03-29T06:14:17;5.77;;;2.37;;
20014;SDS011;61787;42.022;23.078;2023-03-29T06:15:19;8.20;;;2.70;;
20014;SDS011;61787;42.022;23.078;2023-03-29T06:16:22;5.57;;;2.30;;
20014;SDS011;61787;42.022;23.078;2023-03-29T06:17:24;8.10;;;2.77;;
20014;SDS011;61787;42.022;23.078;2023-03-29T06:18:25;4.53;;;2.50;;
20014;SDS011;61787;42.022;23.078;2023-03-29T06:19:27;5.20;;;2.70;;
20014;SDS011;61787;42.022;23.078;2023-03-29T06:20:29;4.50;;;2.10;;
20014;SDS011;61787;42.022;23.078;2023-03-29T06:21:31;5.43;;;2.07;;
20014;SDS011;61787;42.022;23.078;2023-03-29T06:22:33;3.10;;;1.97;;
20014;SDS011;61787;42.022;23.078;2023-03-29T06:23:35;6.20;;;2.10;;
20014;SDS011;61787;42.022;23.078;2023-03-29T06:24:37;3.73;;;2.03;;
20014;SDS011;61787;42.022;23.078;2023-03-29T06:25:38;2.80;;;1.93;;
20014;SDS011;61787;42.022;23.078;2023-03-29T06:26:40;2.30;;;2.10;;
20014;SDS011;61787;42.022;23.078;2023-03-29T06:27:42;4.73;;;2.10;;
20014;SDS011;61787;42.022;23.078;2023-03-29T06:28:43;6.73;;;2.40;;
20014;SDS011;61787;42.022;23.078;2023-03-29T06:29:45;6.47;;;2.27;;
20014;SDS011;61787;42.022;23.078;2023-03-29T06:30:48;3.70;;;2.23;;
20014;SDS011;61787;42.022;23.078;2023-03-29T06:31:50;5.47;;;2.30;;
20014;SDS011;61787;42.022;23.078;2023-03-29T06:32:54;3.43;;;1.97;;